^^
Station Historical Data
Daily Summary for May 13, 2017 Units:  English    Metric   Both
« Previous Day
Next Day »
Daily Weekly Monthly Yearly Custom
  High: Low: Average:
Temperature: 50.5 °F 42.9 °F 47.1 °F
Dew Point: 47.5 °F 41.6 °F 45.2 °F
Humidity: 96% 81% 93%
Wind Speed: 3.0mph 0.0mph 0.7mph
Wind Gust: 12.0mph - -
Wind- - WSW
Pressure: 30.03 in 29.80 in -
Precipitation: 2.05 in    
Historical Graphs
 
 
Tabular Data for May 13, 2017
Time Temperature Dew Point Pressure Wind Wind Speed Wind Gust Humidity Rainfall Rate (Hourly) Conditions
00:00 50.4 °F 44.8 °F 30.03 in Calm   1.0 mph 81% 0.00 in FEW
00:15 50.5 °F 45.2 °F 30.03 in Calm     82% 0.00 in FEW
00:30 50.4 °F 45.1 °F 30.03 in Calm   1.0 mph 82% 0.00 in FEW
00:45 50.4 °F 45.4 °F 30.02 in Calm   1.0 mph 83% 0.00 in FEW
02:15 50.2 °F 45.9 °F 30.00 in Calm   4.0 mph 85% 0.00 in SCT
02:30 50.2 °F 45.9 °F 30.00 in Calm   2.0 mph 85% 0.00 in SCT
02:45 50.2 °F 45.9 °F 29.99 in Calm   2.0 mph 85% 0.00 in SCT
03:00 50.1 °F 45.8 °F 29.99 in Calm   3.0 mph 85% 0.00 in SCT
03:15 50.0 °F 45.7 °F 29.99 in SW 1.0 mph 3.0 mph 85% 0.00 in SCT
04:00 49.5 °F 45.8 °F 29.98 in Calm   3.0 mph 87% 0.00 in SCT
04:15 49.2 °F 45.5 °F 29.98 in Calm   5.0 mph 87% 0.00 in -RA
04:30 48.9 °F 45.5 °F 29.98 in Calm   2.0 mph 88% 0.00 in -RA
04:45 48.6 °F 45.5 °F 29.97 in Calm   2.0 mph 89% 0.01 in -RA
05:00 48.3 °F 45.8 °F 29.97 in Calm   1.0 mph 91% 0.00 in -RA
05:15 48.0 °F 45.5 °F 29.97 in Calm   1.0 mph 91% 0.00 in -RA
05:30 47.9 °F 45.7 °F 29.97 in Calm   1.0 mph 92% 0.01 in -RA
05:45 47.8 °F 45.6 °F 29.96 in Calm   2.0 mph 92% 0.02 in -RA
06:00 47.7 °F 45.8 °F 29.96 in Calm   1.0 mph 93% 0.01 in -RA
06:15 47.7 °F 45.8 °F 29.96 in Calm   1.0 mph 93% 0.00 in -RA
06:30 47.7 °F 46.1 °F 29.96 in Calm   1.0 mph 94% 0.01 in -RA
06:45 47.7 °F 46.1 °F 29.96 in Calm   3.0 mph 94% 0.01 in -RA
07:00 47.8 °F 46.2 °F 29.95 in North 1.0 mph 3.0 mph 94% 0.01 in -RA
07:15 47.7 °F 46.1 °F 29.95 in Calm   3.0 mph 94% 0.01 in -RA
07:30 47.8 °F 46.2 °F 29.95 in NW 1.0 mph 4.0 mph 94% 0.01 in -RA
07:45 48.1 °F 46.7 °F 29.95 in Calm   3.0 mph 95% 0.02 in -RA
08:00 48.3 °F 46.9 °F 29.95 in Calm   2.0 mph 95% 0.01 in -RA
08:30 48.5 °F 47.2 °F 29.95 in NW 1.0 mph 2.0 mph 95% 0.01 in -RA
08:45 48.6 °F 47.0 °F 29.95 in NW 1.0 mph 4.0 mph 94% 0.01 in -RA
09:00 48.5 °F 46.9 °F 29.95 in Calm   3.0 mph 94% 0.02 in -RA
09:15 48.3 °F 46.7 °F 29.95 in Calm   5.0 mph 94% 0.02 in -RA
09:30 48.3 °F 46.7 °F 29.95 in NW 1.0 mph 9.0 mph 94% 0.02 in -RA
09:45 48.3 °F 46.9 °F 29.95 in Calm   5.0 mph 95% 0.02 in -RA
10:00 48.2 °F 46.8 °F 29.95 in WNW 1.0 mph 4.0 mph 95% 0.02 in -RA
10:15 48.3 °F 47.0 °F 29.95 in Calm   4.0 mph 95% 0.02 in -RA
10:30 48.5 °F 47.1 °F 29.94 in Calm   3.0 mph 95% 0.03 in -RA
10:45 48.6 °F 47.2 °F 29.94 in Calm   5.0 mph 95% 0.03 in -RA
11:00 48.5 °F 47.2 °F 29.94 in WSW 1.0 mph 6.0 mph 95% 0.02 in -RA
11:15 48.5 °F 47.1 °F 29.93 in NNW 1.0 mph 7.0 mph 95% 0.03 in -RA
11:30 48.6 °F 47.2 °F 29.93 in ENE 2.0 mph 6.0 mph 95% 0.02 in -RA
11:45 48.7 °F 47.3 °F 29.93 in West 2.0 mph 6.0 mph 95% 0.02 in -RA
12:00 48.5 °F 47.1 °F 29.92 in NNW 1.0 mph 6.0 mph 95% 0.01 in -RA
12:15 48.8 °F 47.4 °F 29.91 in NNE 3.0 mph 8.0 mph 95% 0.01 in -RA
12:30 48.9 °F 47.5 °F 29.91 in NW 3.0 mph 10.0 mph 95% 0.00 in -RA
12:45 49.0 °F 47.3 °F 29.91 in WNW 1.0 mph 8.0 mph 94% 0.01 in -RA
13:00 48.7 °F 47.1 °F 29.91 in WNW 1.0 mph 7.0 mph 94% 0.00 in -RA
13:15 48.8 °F 47.2 °F 29.91 in NNW 2.0 mph 8.0 mph 94% 0.01 in -RA
13:30 48.8 °F 47.2 °F 29.90 in NW 2.0 mph 12.0 mph 94% 0.00 in -RA
13:45 48.6 °F 46.9 °F 29.89 in NW 1.0 mph 7.0 mph 94% 0.02 in -RA
14:00 48.6 °F 47.0 °F 29.89 in North 1.0 mph 6.0 mph 94% 0.04 in -RA
14:15 48.6 °F 47.0 °F 29.89 in WSW 3.0 mph 9.0 mph 94% 0.03 in -RA
14:30 48.4 °F 46.8 °F 29.88 in NNW 1.0 mph 8.0 mph 94% 0.02 in -RA
14:45 48.1 °F 46.5 °F 29.88 in Calm   9.0 mph 94% 0.04 in -RA
15:00 48.0 °F 46.4 °F 29.86 in Calm   8.0 mph 94% 0.03 in -RA
15:15 47.9 °F 46.5 °F 29.87 in Calm   4.0 mph 95% 0.07 in -RA
15:30 47.8 °F 46.5 °F 29.87 in Calm   4.0 mph 95% 0.08 in -RA
15:45 47.7 °F 46.3 °F 29.87 in Calm   3.0 mph 95% 0.07 in -RA
16:00 47.7 °F 46.3 °F 29.87 in Calm   5.0 mph 95% 0.06 in -RA
16:15 47.7 °F 46.3 °F 29.87 in North 1.0 mph 5.0 mph 95% 0.03 in -RA
16:30 47.6 °F 46.2 °F 29.86 in North 1.0 mph 6.0 mph 95% 0.05 in -RA
16:45 47.4 °F 46.0 °F 29.86 in WNW 1.0 mph 12.0 mph 95% 0.03 in -RA
17:00 47.0 °F 45.6 °F 29.85 in NNE 1.0 mph 8.0 mph 95% 0.03 in -RA
17:15 46.7 °F 45.3 °F 29.86 in West 1.0 mph 7.0 mph 95% 0.03 in RA
17:30 46.2 °F 44.5 °F 29.86 in NW 1.0 mph 6.0 mph 94% 0.06 in RA
17:45 45.6 °F 44.0 °F 29.85 in Calm   7.0 mph 94% 0.04 in RA
18:00 45.1 °F 43.8 °F 29.85 in West 1.0 mph 12.0 mph 95% 0.02 in RA
18:15 44.6 °F 43.0 °F 29.84 in NE 2.0 mph 12.0 mph 94% 0.03 in RA
18:30 44.2 °F 42.6 °F 29.84 in NE 2.0 mph 7.0 mph 94% 0.03 in RA
18:45 43.7 °F 42.1 °F 29.84 in ENE 1.0 mph 12.0 mph 94% 0.04 in RA
19:00 43.5 °F 41.9 °F 29.84 in SW 2.0 mph 8.0 mph 94% 0.06 in RA
19:15 43.3 °F 41.7 °F 29.84 in SE 2.0 mph 8.0 mph 94% 0.07 in -RA
19:30 43.1 °F 41.8 °F 29.84 in South 1.0 mph 9.0 mph 95% 0.07 in -RA
19:45 43.0 °F 41.7 °F 29.84 in Calm   9.0 mph 95% 0.07 in -RA
20:00 42.9 °F 41.6 °F 29.83 in SSW 2.0 mph 5.0 mph 95% 0.08 in -RA
20:15 43.0 °F 41.7 °F 29.83 in NW 1.0 mph 7.0 mph 95% 0.06 in -RA
20:30 43.0 °F 41.7 °F 29.83 in WSW 1.0 mph 5.0 mph 95% 0.07 in -RA
20:45 43.1 °F 42.0 °F 29.82 in Calm   8.0 mph 96% 0.03 in -RA
21:00 43.2 °F 42.1 °F 29.83 in Calm   6.0 mph 96% 0.05 in -RA
21:15 43.4 °F 42.3 °F 29.83 in NNW 1.0 mph 5.0 mph 96% 0.02 in -RA
21:30 43.4 °F 42.4 °F 29.83 in Calm   6.0 mph 96% 0.04 in -RA
21:45 43.5 °F 42.4 °F 29.83 in NW 1.0 mph 4.0 mph 96% 0.02 in -RA
22:00 43.5 °F 42.4 °F 29.82 in NNW 1.0 mph 7.0 mph 96% 0.01 in -RA
22:15 43.5 °F 42.4 °F 29.82 in Calm   7.0 mph 96% 0.00 in OVC
22:30 43.5 °F 42.4 °F 29.81 in ENE 1.0 mph 5.0 mph 96% 0.03 in RA
22:45 43.4 °F 42.3 °F 29.81 in NW 1.0 mph 6.0 mph 96% 0.01 in RA
23:00 43.3 °F 42.2 °F 29.81 in Calm   6.0 mph 96% 0.02 in RA
23:15 43.3 °F 42.2 °F 29.81 in NW 1.0 mph 6.0 mph 96% 0.01 in -RA
23:30 43.3 °F 42.3 °F 29.81 in Calm   3.0 mph 96% 0.01 in -RA
23:45 43.4 °F 42.3 °F 29.80 in Calm   2.0 mph 96% 0.00 in -RA
TarryTown NY Weather
Compliments of Weather Underground - 1.5 mb